sensor_id;sensor_type;location;lat;lon;timestamp;P1;durP1;ratioP1;P2;durP2;ratioP2
70946;SDS011;58605;48.700;8.760;2023-07-20T00:00:55;3.63;;;2.30;;
70946;SDS011;58605;48.700;8.760;2023-07-20T00:03:23;3.70;;;2.20;;
70946;SDS011;58605;48.700;8.760;2023-07-20T00:05:50;4.45;;;2.67;;
70946;SDS011;58605;48.700;8.760;2023-07-20T00:08:17;4.32;;;2.35;;
70946;SDS011;58605;48.700;8.760;2023-07-20T00:10:43;4.38;;;2.85;;
70946;SDS011;58605;48.700;8.760;2023-07-20T00:13:10;4.60;;;2.90;;
70946;SDS011;58605;48.700;8.760;2023-07-20T00:15:37;3.93;;;2.40;;
70946;SDS011;58605;48.700;8.760;2023-07-20T00:18:03;4.50;;;2.07;;
70946;SDS011;58605;48.700;8.760;2023-07-20T00:20:31;5.77;;;2.60;;
70946;SDS011;58605;48.700;8.760;2023-07-20T00:22:57;3.40;;;2.33;;
70946;SDS011;58605;48.700;8.760;2023-07-20T00:25:24;4.27;;;2.70;;
70946;SDS011;58605;48.700;8.760;2023-07-20T00:27:50;2.97;;;2.30;;
70946;SDS011;58605;48.700;8.760;2023-07-20T00:30:17;3.50;;;2.23;;
70946;SDS011;58605;48.700;8.760;2023-07-20T00:32:44;4.40;;;2.63;;
70946;SDS011;58605;48.700;8.760;2023-07-20T00:35:11;3.20;;;2.60;;
70946;SDS011;58605;48.700;8.760;2023-07-20T00:37:39;4.10;;;2.50;;
70946;SDS011;58605;48.700;8.760;2023-07-20T00:40:05;3.43;;;2.40;;
70946;SDS011;58605;48.700;8.760;2023-07-20T00:42:35;4.50;;;2.60;;
70946;SDS011;58605;48.700;8.760;2023-07-20T00:45:02;3.80;;;2.10;;
70946;SDS011;58605;48.700;8.760;2023-07-20T00:47:28;3.60;;;2.77;;
70946;SDS011;58605;48.700;8.760;2023-07-20T00:49:54;6.70;;;2.70;;
70946;SDS011;58605;48.700;8.760;2023-07-20T00:52:21;4.03;;;2.50;;
70946;SDS011;58605;48.700;8.760;2023-07-20T00:54:50;3.40;;;2.37;;
70946;SDS011;58605;48.700;8.760;2023-07-20T00:57:17;3.07;;;2.13;;
70946;SDS011;58605;48.700;8.760;2023-07-20T00:59:43;2.87;;;2.30;;
70946;SDS011;58605;48.700;8.760;2023-07-20T01:02:10;4.40;;;3.20;;
70946;SDS011;58605;48.700;8.760;2023-07-20T01:04:36;3.27;;;2.67;;
70946;SDS011;58605;48.700;8.760;2023-07-20T01:07:03;4.10;;;2.40;;
70946;SDS011;58605;48.700;8.760;2023-07-20T01:09:37;3.80;;;2.47;;
70946;SDS011;58605;48.700;8.760;2023-07-20T01:12:09;4.03;;;2.40;;
70946;SDS011;58605;48.700;8.760;2023-07-20T01:14:40;3.00;;;2.67;;
70946;SDS011;58605;48.700;8.760;2023-07-20T01:17:07;4.17;;;2.67;;
70946;SDS011;58605;48.700;8.760;2023-07-20T01:19:33;4.20;;;2.77;;
70946;SDS011;58605;48.700;8.760;2023-07-20T01:22:01;3.27;;;2.20;;
70946;SDS011;58605;48.700;8.760;2023-07-20T01:33:19;4.13;;;2.40;;
70946;SDS011;58605;48.700;8.760;2023-07-20T01:35:48;3.03;;;2.73;;
70946;SDS011;58605;48.700;8.760;2023-07-20T01:38:18;4.27;;;2.60;;
70946;SDS011;58605;48.700;8.760;2023-07-20T01:40:45;7.60;;;2.57;;
70946;SDS011;58605;48.700;8.760;2023-07-20T01:43:11;3.60;;;2.63;;
70946;SDS011;58605;48.700;8.760;2023-07-20T01:45:38;3.27;;;2.83;;
70946;SDS011;58605;48.700;8.760;2023-07-20T01:48:05;2.73;;;2.20;;
70946;SDS011;58605;48.700;8.760;2023-07-20T01:50:32;3.80;;;2.80;;
70946;SDS011;58605;48.700;8.760;2023-07-20T01:52:59;8.00;;;2.80;;
70946;SDS011;58605;48.700;8.760;2023-07-20T01:55:26;4.43;;;2.60;;
70946;SDS011;58605;48.700;8.760;2023-07-20T01:57:52;6.87;;;2.97;;
70946;SDS011;58605;48.700;8.760;2023-07-20T02:00:19;9.57;;;3.40;;
70946;SDS011;58605;48.700;8.760;2023-07-20T02:02:49;4.37;;;3.00;;
70946;SDS011;58605;48.700;8.760;2023-07-20T02:05:15;3.83;;;2.80;;
70946;SDS011;58605;48.700;8.760;2023-07-20T02:07:43;4.17;;;2.53;;
70946;SDS011;58605;48.700;8.760;2023-07-20T02:10:09;3.00;;;2.20;;
70946;SDS011;58605;48.700;8.760;2023-07-20T02:12:36;7.27;;;2.93;;
70946;SDS011;58605;48.700;8.760;2023-07-20T02:15:02;4.40;;;2.53;;
70946;SDS011;58605;48.700;8.760;2023-07-20T02:17:29;4.50;;;2.80;;
70946;SDS011;58605;48.700;8.760;2023-07-20T02:19:55;4.07;;;2.53;;
70946;SDS011;58605;48.700;8.760;2023-07-20T02:22:24;3.87;;;2.50;;
70946;SDS011;58605;48.700;8.760;2023-07-20T02:24:52;5.47;;;2.67;;
70946;SDS011;58605;48.700;8.760;2023-07-20T02:27:18;4.33;;;3.00;;
70946;SDS011;58605;48.700;8.760;2023-07-20T02:29:44;7.57;;;2.73;;
70946;SDS011;58605;48.700;8.760;2023-07-20T02:32:10;4.17;;;2.67;;
70946;SDS011;58605;48.700;8.760;2023-07-20T02:34:36;3.83;;;2.60;;
70946;SDS011;58605;48.700;8.760;2023-07-20T02:37:03;3.27;;;2.50;;
70946;SDS011;58605;48.700;8.760;2023-07-20T02:39:30;3.03;;;2.73;;
70946;SDS011;58605;48.700;8.760;2023-07-20T02:41:58;5.50;;;2.87;;
70946;SDS011;58605;48.700;8.760;2023-07-20T02:44:24;5.13;;;2.90;;
70946;SDS011;58605;48.700;8.760;2023-07-20T02:46:50;5.27;;;3.00;;
70946;SDS011;58605;48.700;8.760;2023-07-20T02:49:16;5.37;;;2.80;;
70946;SDS011;58605;48.700;8.760;2023-07-20T02:51:42;7.03;;;3.27;;
70946;SDS011;58605;48.700;8.760;2023-07-20T02:54:08;4.03;;;2.80;;
70946;SDS011;58605;48.700;8.760;2023-07-20T02:56:34;5.50;;;2.97;;
70946;SDS011;58605;48.700;8.760;2023-07-20T02:59:02;5.27;;;2.63;;
70946;SDS011;58605;48.700;8.760;2023-07-20T03:01:28;2.70;;;2.10;;
70946;SDS011;58605;48.700;8.760;2023-07-20T03:03:54;4.53;;;2.70;;
70946;SDS011;58605;48.700;8.760;2023-07-20T03:06:20;3.73;;;3.10;;
70946;SDS011;58605;48.700;8.760;2023-07-20T03:08:47;4.93;;;2.93;;
70946;SDS011;58605;48.700;8.760;2023-07-20T03:11:13;7.53;;;2.70;;
70946;SDS011;58605;48.700;8.760;2023-07-20T03:13:42;4.90;;;2.90;;
70946;SDS011;58605;48.700;8.760;2023-07-20T03:16:12;3.83;;;3.07;;
70946;SDS011;58605;48.700;8.760;2023-07-20T03:18:41;4.03;;;3.17;;
70946;SDS011;58605;48.700;8.760;2023-07-20T03:21:07;6.60;;;3.47;;
70946;SDS011;58605;48.700;8.760;2023-07-20T03:23:36;5.30;;;3.33;;
70946;SDS011;58605;48.700;8.760;2023-07-20T03:26:03;3.70;;;2.90;;
70946;SDS011;58605;48.700;8.760;2023-07-20T03:28:29;6.83;;;2.83;;
70946;SDS011;58605;48.700;8.760;2023-07-20T03:30:55;4.37;;;3.03;;
70946;SDS011;58605;48.700;8.760;2023-07-20T03:33:25;3.00;;;2.47;;
70946;SDS011;58605;48.700;8.760;2023-07-20T03:35:52;5.10;;;2.80;;
70946;SDS011;58605;48.700;8.760;2023-07-20T03:38:19;4.80;;;3.40;;
70946;SDS011;58605;48.700;8.760;2023-07-20T03:40:51;4.40;;;3.00;;
70946;SDS011;58605;48.700;8.760;2023-07-20T03:43:18;4.90;;;2.80;;
70946;SDS011;58605;48.700;8.760;2023-07-20T03:45:44;4.77;;;2.87;;
70946;SDS011;58605;48.700;8.760;2023-07-20T03:48:16;3.80;;;2.93;;
70946;SDS011;58605;48.700;8.760;2023-07-20T03:50:45;4.07;;;3.03;;
70946;SDS011;58605;48.700;8.760;2023-07-20T03:53:12;6.77;;;3.00;;
70946;SDS011;58605;48.700;8.760;2023-07-20T03:55:39;6.93;;;3.20;;
70946;SDS011;58605;48.700;8.760;2023-07-20T03:58:06;4.23;;;2.87;;
70946;SDS011;58605;48.700;8.760;2023-07-20T04:00:32;6.97;;;4.13;;
70946;SDS011;58605;48.700;8.760;2023-07-20T04:02:59;4.10;;;3.30;;
70946;SDS011;58605;48.700;8.760;2023-07-20T04:05:25;3.37;;;2.80;;
70946;SDS011;58605;48.700;8.760;2023-07-20T04:07:52;6.10;;;3.30;;
70946;SDS011;58605;48.700;8.760;2023-07-20T04:10:19;7.40;;;3.23;;
70946;SDS011;58605;48.700;8.760;2023-07-20T04:12:45;4.50;;;3.10;;
70946;SDS011;58605;48.700;8.760;2023-07-20T04:15:12;3.67;;;3.17;;
70946;SDS011;58605;48.700;8.760;2023-07-20T04:17:38;4.63;;;3.07;;
70946;SDS011;58605;48.700;8.760;2023-07-20T04:20:06;7.33;;;3.53;;
70946;SDS011;58605;48.700;8.760;2023-07-20T04:22:32;10.07;;;3.57;;
70946;SDS011;58605;48.700;8.760;2023-07-20T04:25:00;6.53;;;3.70;;
70946;SDS011;58605;48.700;8.760;2023-07-20T04:27:26;4.07;;;3.30;;
70946;SDS011;58605;48.700;8.760;2023-07-20T04:29:53;5.30;;;3.30;;
70946;SDS011;58605;48.700;8.760;2023-07-20T04:32:19;3.93;;;3.50;;
70946;SDS011;58605;48.700;8.760;2023-07-20T04:34:45;8.60;;;3.20;;
70946;SDS011;58605;48.700;8.760;2023-07-20T04:37:11;3.83;;;3.20;;
70946;SDS011;58605;48.700;8.760;2023-07-20T04:39:37;6.60;;;3.00;;
70946;SDS011;58605;48.700;8.760;2023-07-20T04:42:05;5.80;;;3.17;;
70946;SDS011;58605;48.700;8.760;2023-07-20T04:44:31;4.23;;;3.17;;
70946;SDS011;58605;48.700;8.760;2023-07-20T04:46:57;7.00;;;2.83;;
70946;SDS011;58605;48.700;8.760;2023-07-20T04:49:23;5.43;;;3.00;;
70946;SDS011;58605;48.700;8.760;2023-07-20T04:51:49;5.33;;;3.43;;
70946;SDS011;58605;48.700;8.760;2023-07-20T04:54:16;4.83;;;3.33;;
70946;SDS011;58605;48.700;8.760;2023-07-20T04:56:43;3.80;;;2.90;;
70946;SDS011;58605;48.700;8.760;2023-07-20T04:59:11;5.47;;;3.00;;
70946;SDS011;58605;48.700;8.760;2023-07-20T05:01:37;3.73;;;3.00;;
70946;SDS011;58605;48.700;8.760;2023-07-20T05:04:10;6.67;;;3.10;;
70946;SDS011;58605;48.700;8.760;2023-07-20T05:06:36;4.73;;;2.57;;
70946;SDS011;58605;48.700;8.760;2023-07-20T05:11:59;4.50;;;3.43;;
70946;SDS011;58605;48.700;8.760;2023-07-20T05:14:26;4.87;;;3.17;;
70946;SDS011;58605;48.700;8.760;2023-07-20T05:16:52;3.57;;;2.87;;
70946;SDS011;58605;48.700;8.760;2023-07-20T05:19:18;4.07;;;3.20;;
70946;SDS011;58605;48.700;8.760;2023-07-20T05:21:44;8.27;;;3.20;;
70946;SDS011;58605;48.700;8.760;2023-07-20T05:24:11;4.47;;;2.83;;
70946;SDS011;58605;48.700;8.760;2023-07-20T05:26:37;7.87;;;3.10;;
70946;SDS011;58605;48.700;8.760;2023-07-20T05:29:03;7.53;;;3.00;;
70946;SDS011;58605;48.700;8.760;2023-07-20T05:31:30;4.67;;;3.13;;
70946;SDS011;58605;48.700;8.760;2023-07-20T05:33:57;5.37;;;3.10;;
70946;SDS011;58605;48.700;8.760;2023-07-20T05:38:51;6.10;;;3.07;;
70946;SDS011;58605;48.700;8.760;2023-07-20T05:41:17;3.67;;;2.80;;
70946;SDS011;58605;48.700;8.760;2023-07-20T05:43:43;5.47;;;3.47;;
70946;SDS011;58605;48.700;8.760;2023-07-20T05:46:09;3.70;;;2.80;;
70946;SDS011;58605;48.700;8.760;2023-07-20T05:48:36;5.50;;;2.90;;
70946;SDS011;58605;48.700;8.760;2023-07-20T05:51:02;3.47;;;2.40;;
70946;SDS011;58605;48.700;8.760;2023-07-20T05:53:28;3.90;;;2.87;;
70946;SDS011;58605;48.700;8.760;2023-07-20T05:55:55;4.00;;;3.57;;
70946;SDS011;58605;48.700;8.760;2023-07-20T05:58:21;3.67;;;3.00;;
70946;SDS011;58605;48.700;8.760;2023-07-20T06:00:48;5.20;;;2.73;;
70946;SDS011;58605;48.700;8.760;2023-07-20T06:03:14;6.13;;;2.97;;
70946;SDS011;58605;48.700;8.760;2023-07-20T06:05:45;7.23;;;2.90;;
70946;SDS011;58605;48.700;8.760;2023-07-20T06:08:11;5.97;;;3.17;;
70946;SDS011;58605;48.700;8.760;2023-07-20T06:10:37;4.77;;;2.60;;
70946;SDS011;58605;48.700;8.760;2023-07-20T06:13:03;5.23;;;2.83;;
70946;SDS011;58605;48.700;8.760;2023-07-20T06:15:31;5.77;;;3.00;;
70946;SDS011;58605;48.700;8.760;2023-07-20T06:17:59;4.50;;;3.10;;
70946;SDS011;58605;48.700;8.760;2023-07-20T06:20:26;4.50;;;2.90;;
70946;SDS011;58605;48.700;8.760;2023-07-20T06:22:54;7.40;;;3.07;;
70946;SDS011;58605;48.700;8.760;2023-07-20T06:25:20;6.60;;;3.03;;
70946;SDS011;58605;48.700;8.760;2023-07-20T06:27:46;4.37;;;3.43;;
70946;SDS011;58605;48.700;8.760;2023-07-20T06:30:14;5.87;;;3.10;;
70946;SDS011;58605;48.700;8.760;2023-07-20T06:32:40;6.90;;;3.20;;
70946;SDS011;58605;48.700;8.760;2023-07-20T06:35:06;4.40;;;3.10;;
70946;SDS011;58605;48.700;8.760;2023-07-20T06:37:33;4.00;;;3.13;;
70946;SDS011;58605;48.700;8.760;2023-07-20T06:40:01;5.53;;;3.30;;
70946;SDS011;58605;48.700;8.760;2023-07-20T06:42:28;6.07;;;2.87;;
70946;SDS011;58605;48.700;8.760;2023-07-20T06:44:56;4.40;;;2.97;;
70946;SDS011;58605;48.700;8.760;2023-07-20T06:47:22;4.15;;;3.25;;
70946;SDS011;58605;48.700;8.760;2023-07-20T06:49:48;7.35;;;3.50;;
70946;SDS011;58605;48.700;8.760;2023-07-20T06:52:15;7.80;;;3.10;;
70946;SDS011;58605;48.700;8.760;2023-07-20T06:54:41;4.20;;;2.85;;
70946;SDS011;58605;48.700;8.760;2023-07-20T06:57:08;3.80;;;2.70;;
70946;SDS011;58605;48.700;8.760;2023-07-20T06:59:37;5.43;;;2.55;;
70946;SDS011;58605;48.700;8.760;2023-07-20T07:02:03;5.28;;;3.28;;
70946;SDS011;58605;48.700;8.760;2023-07-20T07:04:29;4.07;;;3.10;;
70946;SDS011;58605;48.700;8.760;2023-07-20T07:06:56;4.28;;;2.63;;
70946;SDS011;58605;48.700;8.760;2023-07-20T07:09:22;7.32;;;2.78;;
70946;SDS011;58605;48.700;8.760;2023-07-20T07:11:49;5.18;;;3.00;;
70946;SDS011;58605;48.700;8.760;2023-07-20T07:14:17;4.60;;;2.40;;
70946;SDS011;58605;48.700;8.760;2023-07-20T07:16:43;5.15;;;3.22;;
70946;SDS011;58605;48.700;8.760;2023-07-20T07:19:09;6.30;;;2.90;;
70946;SDS011;58605;48.700;8.760;2023-07-20T07:21:35;5.25;;;2.60;;
70946;SDS011;58605;48.700;8.760;2023-07-20T07:24:01;8.88;;;3.13;;
70946;SDS011;58605;48.700;8.760;2023-07-20T07:26:29;5.25;;;3.55;;
70946;SDS011;58605;48.700;8.760;2023-07-20T07:28:55;5.78;;;3.00;;
70946;SDS011;58605;48.700;8.760;2023-07-20T07:31:22;5.63;;;3.20;;
70946;SDS011;58605;48.700;8.760;2023-07-20T07:33:50;5.60;;;2.63;;
70946;SDS011;58605;48.700;8.760;2023-07-20T07:36:16;4.28;;;3.08;;
70946;SDS011;58605;48.700;8.760;2023-07-20T07:38:43;4.22;;;3.22;;
70946;SDS011;58605;48.700;8.760;2023-07-20T07:41:09;5.00;;;2.20;;
70946;SDS011;58605;48.700;8.760;2023-07-20T07:43:35;6.60;;;3.00;;
70946;SDS011;58605;48.700;8.760;2023-07-20T07:46:01;2.70;;;2.30;;
70946;SDS011;58605;48.700;8.760;2023-07-20T07:48:29;4.50;;;3.05;;
70946;SDS011;58605;48.700;8.760;2023-07-20T07:50:55;8.25;;;3.25;;
70946;SDS011;58605;48.700;8.760;2023-07-20T07:53:21;6.43;;;3.20;;
70946;SDS011;58605;48.700;8.760;2023-07-20T07:55:47;3.25;;;2.78;;
70946;SDS011;58605;48.700;8.760;2023-07-20T07:58:14;3.58;;;3.17;;
70946;SDS011;58605;48.700;8.760;2023-07-20T08:00:40;4.35;;;2.83;;
70946;SDS011;58605;48.700;8.760;2023-07-20T08:03:06;3.63;;;2.90;;
70946;SDS011;58605;48.700;8.760;2023-07-20T08:05:34;5.25;;;2.85;;
70946;SDS011;58605;48.700;8.760;2023-07-20T08:08:03;4.60;;;2.78;;
70946;SDS011;58605;48.700;8.760;2023-07-20T08:10:29;5.53;;;2.38;;
70946;SDS011;58605;48.700;8.760;2023-07-20T08:12:55;3.97;;;2.92;;
70946;SDS011;58605;48.700;8.760;2023-07-20T08:15:21;4.53;;;2.33;;
70946;SDS011;58605;48.700;8.760;2023-07-20T08:17:47;7.68;;;2.72;;
70946;SDS011;58605;48.700;8.760;2023-07-20T08:20:16;4.40;;;2.28;;
70946;SDS011;58605;48.700;8.760;2023-07-20T08:22:44;5.40;;;2.58;;
70946;SDS011;58605;48.700;8.760;2023-07-20T08:25:10;3.17;;;2.22;;
70946;SDS011;58605;48.700;8.760;2023-07-20T08:27:36;5.85;;;2.60;;
70946;SDS011;58605;48.700;8.760;2023-07-20T08:30:03;2.38;;;1.95;;
70946;SDS011;58605;48.700;8.760;2023-07-20T08:32:30;3.67;;;2.05;;
70946;SDS011;58605;48.700;8.760;2023-07-20T08:34:58;6.70;;;2.42;;
70946;SDS011;58605;48.700;8.760;2023-07-20T08:37:24;4.10;;;2.42;;
70946;SDS011;58605;48.700;8.760;2023-07-20T08:39:51;7.00;;;2.60;;
70946;SDS011;58605;48.700;8.760;2023-07-20T08:42:18;3.15;;;2.38;;
70946;SDS011;58605;48.700;8.760;2023-07-20T08:44:44;7.35;;;2.40;;
70946;SDS011;58605;48.700;8.760;2023-07-20T08:47:12;3.47;;;2.47;;
70946;SDS011;58605;48.700;8.760;2023-07-20T08:49:41;3.72;;;1.90;;
70946;SDS011;58605;48.700;8.760;2023-07-20T08:52:07;4.82;;;2.20;;
70946;SDS011;58605;48.700;8.760;2023-07-20T08:54:34;3.22;;;2.08;;
70946;SDS011;58605;48.700;8.760;2023-07-20T08:57:03;2.35;;;1.98;;
70946;SDS011;58605;48.700;8.760;2023-07-20T08:59:30;3.22;;;1.98;;
70946;SDS011;58605;48.700;8.760;2023-07-20T09:01:58;5.82;;;1.88;;
70946;SDS011;58605;48.700;8.760;2023-07-20T09:04:24;3.28;;;2.00;;
70946;SDS011;58605;48.700;8.760;2023-07-20T09:06:50;5.30;;;2.05;;
70946;SDS011;58605;48.700;8.760;2023-07-20T09:09:17;3.58;;;2.20;;
70946;SDS011;58605;48.700;8.760;2023-07-20T09:11:43;3.92;;;2.08;;
70946;SDS011;58605;48.700;8.760;2023-07-20T09:14:15;4.75;;;2.33;;
70946;SDS011;58605;48.700;8.760;2023-07-20T09:16:48;5.65;;;2.47;;
70946;SDS011;58605;48.700;8.760;2023-07-20T09:19:15;4.22;;;2.08;;
70946;SDS011;58605;48.700;8.760;2023-07-20T09:21:43;7.18;;;2.30;;
70946;SDS011;58605;48.700;8.760;2023-07-20T09:24:11;3.92;;;1.95;;
70946;SDS011;58605;48.700;8.760;2023-07-20T09:26:40;4.63;;;2.45;;
70946;SDS011;58605;48.700;8.760;2023-07-20T09:29:07;4.88;;;1.90;;
70946;SDS011;58605;48.700;8.760;2023-07-20T09:31:37;3.33;;;1.95;;
70946;SDS011;58605;48.700;8.760;2023-07-20T09:34:06;3.47;;;2.00;;
70946;SDS011;58605;48.700;8.760;2023-07-20T09:36:35;2.75;;;1.90;;
70946;SDS011;58605;48.700;8.760;2023-07-20T09:39:03;2.42;;;1.50;;
70946;SDS011;58605;48.700;8.760;2023-07-20T09:41:30;3.38;;;2.05;;
70946;SDS011;58605;48.700;8.760;2023-07-20T09:44:05;2.65;;;1.95;;
70946;SDS011;58605;48.700;8.760;2023-07-20T09:46:43;3.38;;;2.05;;
70946;SDS011;58605;48.700;8.760;2023-07-20T09:49:10;6.95;;;2.40;;
70946;SDS011;58605;48.700;8.760;2023-07-20T09:51:37;2.95;;;1.90;;
70946;SDS011;58605;48.700;8.760;2023-07-20T09:54:04;3.05;;;1.95;;
70946;SDS011;58605;48.700;8.760;2023-07-20T09:56:31;3.17;;;2.05;;
70946;SDS011;58605;48.700;8.760;2023-07-20T09:58:59;2.95;;;1.77;;
70946;SDS011;58605;48.700;8.760;2023-07-20T10:01:25;2.58;;;1.92;;
70946;SDS011;58605;48.700;8.760;2023-07-20T10:03:55;3.28;;;2.05;;
70946;SDS011;58605;48.700;8.760;2023-07-20T10:06:26;3.42;;;2.10;;
70946;SDS011;58605;48.700;8.760;2023-07-20T10:08:55;3.50;;;1.80;;
70946;SDS011;58605;48.700;8.760;2023-07-20T10:11:26;2.45;;;1.60;;
70946;SDS011;58605;48.700;8.760;2023-07-20T10:13:54;3.08;;;1.88;;
70946;SDS011;58605;48.700;8.760;2023-07-20T10:16:26;2.30;;;1.63;;
70946;SDS011;58605;48.700;8.760;2023-07-20T10:19:02;2.33;;;1.80;;
70946;SDS011;58605;48.700;8.760;2023-07-20T10:21:31;3.33;;;1.90;;
70946;SDS011;58605;48.700;8.760;2023-07-20T10:24:00;2.33;;;1.85;;
70946;SDS011;58605;48.700;8.760;2023-07-20T10:26:27;3.35;;;1.90;;
70946;SDS011;58605;48.700;8.760;2023-07-20T10:28:54;2.90;;;1.67;;
70946;SDS011;58605;48.700;8.760;2023-07-20T10:31:22;4.18;;;1.80;;
70946;SDS011;58605;48.700;8.760;2023-07-20T10:33:49;3.15;;;2.00;;
70946;SDS011;58605;48.700;8.760;2023-07-20T10:36:21;3.90;;;1.90;;
70946;SDS011;58605;48.700;8.760;2023-07-20T10:38:54;4.15;;;1.80;;
70946;SDS011;58605;48.700;8.760;2023-07-20T10:41:22;4.32;;;1.70;;
70946;SDS011;58605;48.700;8.760;2023-07-20T10:43:57;2.10;;;1.90;;
70946;SDS011;58605;48.700;8.760;2023-07-20T10:46:34;2.20;;;1.70;;
70946;SDS011;58605;48.700;8.760;2023-07-20T10:49:08;3.50;;;2.05;;
70946;SDS011;58605;48.700;8.760;2023-07-20T10:51:39;4.38;;;1.83;;
70946;SDS011;58605;48.700;8.760;2023-07-20T10:54:33;9.07;;;1.95;;
70946;SDS011;58605;48.700;8.760;2023-07-20T10:59:47;1.75;;;1.20;;
70946;SDS011;58605;48.700;8.760;2023-07-20T11:02:17;3.55;;;1.75;;
70946;SDS011;58605;48.700;8.760;2023-07-20T11:04:44;2.65;;;1.75;;
70946;SDS011;58605;48.700;8.760;2023-07-20T11:07:15;6.18;;;1.98;;
70946;SDS011;58605;48.700;8.760;2023-07-20T11:09:42;3.13;;;1.83;;
70946;SDS011;58605;48.700;8.760;2023-07-20T11:12:09;2.88;;;2.00;;
70946;SDS011;58605;48.700;8.760;2023-07-20T11:14:36;3.72;;;1.98;;
70946;SDS011;58605;48.700;8.760;2023-07-20T11:17:10;5.35;;;2.05;;
70946;SDS011;58605;48.700;8.760;2023-07-20T11:19:38;5.40;;;2.05;;
70946;SDS011;58605;48.700;8.760;2023-07-20T11:22:08;3.00;;;1.58;;
70946;SDS011;58605;48.700;8.760;2023-07-20T11:24:37;2.33;;;1.40;;
70946;SDS011;58605;48.700;8.760;2023-07-20T11:27:04;6.35;;;1.77;;
70946;SDS011;58605;48.700;8.760;2023-07-20T11:29:31;1.70;;;1.60;;
70946;SDS011;58605;48.700;8.760;2023-07-20T11:31:57;1.67;;;1.42;;
70946;SDS011;58605;48.700;8.760;2023-07-20T11:34:26;2.42;;;1.77;;
70946;SDS011;58605;48.700;8.760;2023-07-20T11:36:55;2.83;;;1.80;;
70946;SDS011;58605;48.700;8.760;2023-07-20T11:39:22;1.92;;;1.60;;
70946;SDS011;58605;48.700;8.760;2023-07-20T11:41:51;1.98;;;1.77;;
70946;SDS011;58605;48.700;8.760;2023-07-20T11:44:18;3.80;;;2.00;;
70946;SDS011;58605;48.700;8.760;2023-07-20T11:46:59;4.28;;;2.33;;
70946;SDS011;58605;48.700;8.760;2023-07-20T11:49:26;2.00;;;1.73;;
70946;SDS011;58605;48.700;8.760;2023-07-20T11:51:52;2.67;;;1.90;;
70946;SDS011;58605;48.700;8.760;2023-07-20T11:54:19;1.88;;;1.40;;
70946;SDS011;58605;48.700;8.760;2023-07-20T11:56:45;2.15;;;1.33;;
70946;SDS011;58605;48.700;8.760;2023-07-20T11:59:13;3.50;;;1.70;;
70946;SDS011;58605;48.700;8.760;2023-07-20T12:01:39;1.65;;;1.52;;
70946;SDS011;58605;48.700;8.760;2023-07-20T12:04:06;2.00;;;1.40;;
70946;SDS011;58605;48.700;8.760;2023-07-20T12:06:32;1.77;;;1.45;;
70946;SDS011;58605;48.700;8.760;2023-07-20T12:08:58;2.10;;;1.80;;
70946;SDS011;58605;48.700;8.760;2023-07-20T12:11:34;1.98;;;1.60;;
70946;SDS011;58605;48.700;8.760;2023-07-20T12:14:02;4.10;;;1.80;;
70946;SDS011;58605;48.700;8.760;2023-07-20T12:16:30;3.67;;;1.70;;
70946;SDS011;58605;48.700;8.760;2023-07-20T12:19:00;1.98;;;1.63;;
70946;SDS011;58605;48.700;8.760;2023-07-20T12:21:27;3.40;;;1.90;;
70946;SDS011;58605;48.700;8.760;2023-07-20T12:23:54;2.05;;;1.60;;
70946;SDS011;58605;48.700;8.760;2023-07-20T12:26:22;3.30;;;1.60;;
70946;SDS011;58605;48.700;8.760;2023-07-20T12:28:49;3.60;;;1.83;;
70946;SDS011;58605;48.700;8.760;2023-07-20T12:31:15;10.52;;;2.03;;
70946;SDS011;58605;48.700;8.760;2023-07-20T12:33:43;1.52;;;1.42;;
70946;SDS011;58605;48.700;8.760;2023-07-20T12:36:09;3.30;;;1.80;;
70946;SDS011;58605;48.700;8.760;2023-07-20T12:38:36;4.13;;;1.77;;
70946;SDS011;58605;48.700;8.760;2023-07-20T12:41:02;1.40;;;1.30;;
70946;SDS011;58605;48.700;8.760;2023-07-20T12:43:28;2.58;;;1.80;;
70946;SDS011;58605;48.700;8.760;2023-07-20T12:45:55;6.20;;;1.80;;
70946;SDS011;58605;48.700;8.760;2023-07-20T12:48:22;2.63;;;1.50;;
70946;SDS011;58605;48.700;8.760;2023-07-20T12:50:49;2.28;;;1.50;;
70946;SDS011;58605;48.700;8.760;2023-07-20T12:53:15;2.95;;;1.85;;
70946;SDS011;58605;48.700;8.760;2023-07-20T12:55:42;2.00;;;1.60;;
70946;SDS011;58605;48.700;8.760;2023-07-20T12:58:08;2.25;;;1.60;;
70946;SDS011;58605;48.700;8.760;2023-07-20T13:00:35;2.30;;;1.70;;
70946;SDS011;58605;48.700;8.760;2023-07-20T13:03:01;4.18;;;1.60;;
70946;SDS011;58605;48.700;8.760;2023-07-20T13:05:30;1.90;;;1.73;;
70946;SDS011;58605;48.700;8.760;2023-07-20T13:07:58;3.83;;;1.67;;
70946;SDS011;58605;48.700;8.760;2023-07-20T13:10:24;1.65;;;1.55;;
70946;SDS011;58605;48.700;8.760;2023-07-20T13:12:51;2.60;;;1.63;;
70946;SDS011;58605;48.700;8.760;2023-07-20T13:15:17;3.17;;;1.83;;
70946;SDS011;58605;48.700;8.760;2023-07-20T13:17:44;2.00;;;1.80;;
70946;SDS011;58605;48.700;8.760;2023-07-20T13:20:11;2.83;;;2.13;;
70946;SDS011;58605;48.700;8.760;2023-07-20T13:22:37;1.88;;;1.75;;
70946;SDS011;58605;48.700;8.760;2023-07-20T13:25:06;2.00;;;1.80;;
70946;SDS011;58605;48.700;8.760;2023-07-20T13:27:33;3.15;;;1.73;;
70946;SDS011;58605;48.700;8.760;2023-07-20T13:29:59;2.17;;;1.60;;
70946;SDS011;58605;48.700;8.760;2023-07-20T13:32:26;2.25;;;2.03;;
70946;SDS011;58605;48.700;8.760;2023-07-20T13:34:52;2.20;;;1.70;;
70946;SDS011;58605;48.700;8.760;2023-07-20T13:37:18;2.03;;;1.60;;
70946;SDS011;58605;48.700;8.760;2023-07-20T13:39:45;5.70;;;1.88;;
70946;SDS011;58605;48.700;8.760;2023-07-20T13:42:12;2.03;;;1.70;;
70946;SDS011;58605;48.700;8.760;2023-07-20T13:44:38;3.65;;;2.28;;
70946;SDS011;58605;48.700;8.760;2023-07-20T13:47:05;3.67;;;2.22;;
70946;SDS011;58605;48.700;8.760;2023-07-20T13:49:31;1.95;;;1.50;;
70946;SDS011;58605;48.700;8.760;2023-07-20T13:51:57;2.80;;;2.08;;
70946;SDS011;58605;48.700;8.760;2023-07-20T13:54:24;2.05;;;1.85;;
70946;SDS011;58605;48.700;8.760;2023-07-20T13:56:50;4.10;;;1.55;;
70946;SDS011;58605;48.700;8.760;2023-07-20T13:59:18;2.88;;;1.45;;
70946;SDS011;58605;48.700;8.760;2023-07-20T14:01:44;4.95;;;1.60;;
70946;SDS011;58605;48.700;8.760;2023-07-20T14:04:11;2.22;;;1.60;;
70946;SDS011;58605;48.700;8.760;2023-07-20T14:06:37;1.92;;;1.60;;
70946;SDS011;58605;48.700;8.760;2023-07-20T14:09:03;4.20;;;2.00;;
70946;SDS011;58605;48.700;8.760;2023-07-20T14:11:29;3.05;;;2.20;;
70946;SDS011;58605;48.700;8.760;2023-07-20T14:13:56;3.35;;;1.58;;
70946;SDS011;58605;48.700;8.760;2023-07-20T14:16:25;10.65;;;1.90;;
70946;SDS011;58605;48.700;8.760;2023-07-20T14:18:51;3.60;;;1.90;;
70946;SDS011;58605;48.700;8.760;2023-07-20T14:21:18;3.35;;;1.80;;
70946;SDS011;58605;48.700;8.760;2023-07-20T14:23:45;2.67;;;2.00;;
70946;SDS011;58605;48.700;8.760;2023-07-20T14:26:12;4.15;;;2.10;;
70946;SDS011;58605;48.700;8.760;2023-07-20T14:28:38;3.25;;;1.70;;
70946;SDS011;58605;48.700;8.760;2023-07-20T14:31:04;1.73;;;1.45;;
70946;SDS011;58605;48.700;8.760;2023-07-20T14:33:32;3.75;;;1.90;;
70946;SDS011;58605;48.700;8.760;2023-07-20T14:35:59;1.95;;;1.60;;
70946;SDS011;58605;48.700;8.760;2023-07-20T14:38:26;2.47;;;1.52;;
70946;SDS011;58605;48.700;8.760;2023-07-20T14:40:53;2.92;;;1.90;;
70946;SDS011;58605;48.700;8.760;2023-07-20T14:43:19;2.03;;;1.63;;
70946;SDS011;58605;48.700;8.760;2023-07-20T14:45:45;2.58;;;1.75;;
70946;SDS011;58605;48.700;8.760;2023-07-20T14:48:11;4.22;;;2.20;;
70946;SDS011;58605;48.700;8.760;2023-07-20T14:50:39;4.13;;;1.88;;
70946;SDS011;58605;48.700;8.760;2023-07-20T14:53:05;2.50;;;2.03;;
70946;SDS011;58605;48.700;8.760;2023-07-20T14:55:32;4.97;;;2.20;;
70946;SDS011;58605;48.700;8.760;2023-07-20T14:57:59;1.65;;;1.40;;
70946;SDS011;58605;48.700;8.760;2023-07-20T15:00:25;3.15;;;1.73;;
70946;SDS011;58605;48.700;8.760;2023-07-20T15:02:51;3.75;;;2.17;;
70946;SDS011;58605;48.700;8.760;2023-07-20T15:05:21;2.47;;;1.55;;